createdAt,value
2018-12-09T00:00:51.716Z,10.25
2018-12-09T00:01:51.824Z,10.09
2018-12-09T00:02:51.894Z,10.16
2018-12-09T00:03:51.930Z,10.14
2018-12-09T00:04:52.026Z,10.02
2018-12-09T00:05:51.981Z,10.10
2018-12-09T00:06:52.035Z,10.11
2018-12-09T00:07:52.125Z,9.98
2018-12-09T00:08:52.186Z,9.96
2018-12-09T00:09:52.208Z,9.86
2018-12-09T00:10:52.262Z,9.98
2018-12-09T00:11:52.427Z,10.04
2018-12-09T00:12:52.404Z,10.07
2018-12-09T00:13:52.498Z,10.11
2018-12-09T00:14:52.525Z,10.16
2018-12-09T00:15:52.559Z,10.16
2018-12-09T00:16:52.665Z,10.14
2018-12-09T00:17:52.719Z,10.14
2018-12-09T00:18:52.767Z,10.04
2018-12-09T00:19:52.788Z,10.02
2018-12-09T00:20:52.856Z,10.04
2018-12-09T00:21:53.014Z,9.95
2018-12-09T00:22:52.964Z,9.75
2018-12-09T00:23:53.040Z,9.98
2018-12-09T00:24:53.128Z,10.07
2018-12-09T00:25:53.139Z,10.09
2018-12-09T00:26:53.308Z,10.26
2018-12-09T00:27:53.284Z,10.31
2018-12-09T00:28:53.307Z,10.38
2018-12-09T00:29:53.376Z,10.38
2018-12-09T00:30:53.458Z,10.42
2018-12-09T00:31:53.588Z,10.44
2018-12-09T00:32:53.566Z,10.36
2018-12-09T00:33:53.575Z,10.32
2018-12-09T00:34:53.691Z,10.47
2018-12-09T00:35:53.678Z,10.44
2018-12-09T00:36:53.804Z,10.32
2018-12-09T00:37:53.873Z,10.35
2018-12-09T00:38:53.847Z,10.31
2018-12-09T00:39:53.973Z,10.38
2018-12-09T00:40:53.991Z,10.36
2018-12-09T00:41:54.125Z,10.44
2018-12-09T00:42:54.103Z,10.35
2018-12-09T00:43:54.151Z,10.44
2018-12-09T00:44:54.259Z,10.36
2018-12-09T00:45:54.328Z,10.32
2018-12-09T00:46:54.303Z,10.49
2018-12-09T00:47:54.440Z,10.46
2018-12-09T00:48:54.481Z,10.46
2018-12-09T00:49:54.549Z,10.63
2018-12-09T00:50:54.584Z,10.57
2018-12-09T00:51:54.641Z,10.54
2018-12-09T00:52:54.707Z,10.60
2018-12-09T00:53:54.718Z,10.62
2018-12-09T00:54:54.786Z,10.57
2018-12-09T00:55:54.868Z,10.49
2018-12-09T00:56:54.974Z,10.51
2018-12-09T00:57:55.011Z,10.44
2018-12-09T00:58:54.986Z,10.46
2018-12-09T00:59:55.043Z,10.47
2018-12-09T01:00:55.111Z,10.39
2018-12-09T01:01:55.288Z,10.39
2018-12-09T01:02:55.298Z,10.38
2018-12-09T01:03:55.277Z,10.47
2018-12-09T01:04:55.412Z,10.51
2018-12-09T01:05:55.447Z,10.34
2018-12-09T01:06:55.564Z,10.24
2018-12-09T01:07:55.565Z,10.22
2018-12-09T01:08:55.552Z,10.17
2018-12-09T01:09:55.629Z,10.10
2018-12-09T01:10:55.722Z,10.17
2018-12-09T01:11:55.826Z,10.07
2018-12-09T01:12:55.816Z,10.17
2018-12-09T01:13:55.922Z,10.14
2018-12-09T01:14:55.941Z,10.16
2018-12-09T01:15:55.996Z,10.16
2018-12-09T01:16:56.137Z,10.07
2018-12-09T01:17:56.141Z,10.11
2018-12-09T01:18:56.119Z,10.02
2018-12-09T01:19:56.180Z,9.98
2018-12-09T01:20:56.308Z,9.93
2018-12-09T01:21:56.367Z,9.98
2018-12-09T01:22:56.400Z,9.89
2018-12-09T01:23:56.402Z,9.93
2018-12-09T01:24:56.460Z,9.85
2018-12-09T01:25:56.516Z,9.89
2018-12-09T01:26:56.572Z,9.96
2018-12-09T01:27:56.629Z,9.89
2018-12-09T01:28:56.703Z,9.83
2018-12-09T01:29:56.791Z,9.88
2018-12-09T01:30:56.843Z,9.83
2018-12-09T01:31:56.895Z,9.83
2018-12-09T01:32:57.014Z,9.85
2018-12-09T01:33:57.065Z,9.78
2018-12-09T01:34:57.092Z,9.81
2018-12-09T01:35:57.081Z,9.80
2018-12-09T01:36:57.139Z,9.77
2018-12-09T01:37:57.196Z,9.78
2018-12-09T01:38:57.250Z,9.78
2018-12-09T01:39:57.349Z,9.88
2018-12-09T01:40:57.365Z,9.88
2018-12-09T01:41:57.422Z,9.71
2018-12-09T01:42:57.476Z,9.85
2018-12-09T01:43:57.534Z,9.73
2018-12-09T01:44:57.590Z,9.26
2018-12-09T01:45:57.647Z,9.04
2018-12-09T01:46:57.703Z,8.76
2018-12-09T01:47:57.761Z,8.71
2018-12-09T01:48:57.820Z,8.71
2018-12-09T01:49:57.873Z,8.52
2018-12-09T01:50:57.929Z,8.55
2018-12-09T01:51:57.985Z,8.55
2018-12-09T01:52:58.041Z,8.50
2018-12-09T01:53:58.098Z,8.50
2018-12-09T01:54:58.168Z,8.39
2018-12-09T01:55:58.210Z,8.17
2018-12-09T01:56:58.266Z,8.20
2018-12-09T01:57:58.364Z,8.18
2018-12-09T01:58:58.379Z,8.07
2018-12-09T01:59:58.433Z,8.21
2018-12-09T02:00:58.490Z,8.21
2018-12-09T02:01:58.546Z,8.27
2018-12-09T02:02:58.601Z,8.28
2018-12-09T02:03:58.657Z,8.29
2018-12-09T02:04:58.713Z,8.25
2018-12-09T02:05:58.771Z,8.24
2018-12-09T02:06:58.825Z,8.24
2018-12-09T02:07:58.879Z,8.22
2018-12-09T02:08:58.936Z,8.20
2018-12-09T02:09:58.991Z,8.22
2018-12-09T02:10:59.050Z,8.14
2018-12-09T02:11:59.101Z,8.24
2018-12-09T02:12:59.158Z,8.12
2018-12-09T02:13:59.218Z,8.17
2018-12-09T02:14:59.271Z,8.06
2018-12-09T02:15:59.325Z,8.17
2018-12-09T02:16:59.381Z,8.17
2018-12-09T02:17:59.438Z,8.06
2018-12-09T02:18:59.491Z,8.12
2018-12-09T02:19:59.564Z,8.21
2018-12-09T02:20:59.603Z,8.20
2018-12-09T02:21:59.660Z,8.24
2018-12-09T02:22:59.716Z,8.34
2018-12-09T02:23:59.770Z,8.28
2018-12-09T02:24:59.835Z,8.32
2018-12-09T02:25:59.882Z,8.36
2018-12-09T02:26:59.940Z,8.24
2018-12-09T02:27:59.995Z,8.12
2018-12-09T02:29:00.052Z,8.03
2018-12-09T02:30:00.110Z,7.92
2018-12-09T02:31:00.161Z,7.96
2018-12-09T02:32:00.219Z,8.12
2018-12-09T02:33:00.273Z,8.03
2018-12-09T02:34:00.330Z,8.07
2018-12-09T02:35:00.385Z,8.14
2018-12-09T02:36:00.441Z,8.25
2018-12-09T02:37:00.496Z,8.10
2018-12-09T02:38:00.554Z,8.20
2018-12-09T02:39:00.608Z,8.13
2018-12-09T02:40:00.664Z,8.20
2018-12-09T02:41:00.721Z,8.24
2018-12-09T02:42:00.776Z,8.10
2018-12-09T02:43:00.831Z,8.02
2018-12-09T02:44:00.889Z,7.96
2018-12-09T02:45:00.950Z,8.21
2018-12-09T02:46:00.999Z,8.24
2018-12-09T02:47:01.057Z,8.34
2018-12-09T02:48:01.111Z,8.57
2018-12-09T02:49:01.167Z,8.37
2018-12-09T02:50:01.224Z,8.10
2018-12-09T02:51:01.279Z,8.29
2018-12-09T02:52:01.335Z,8.60
2018-12-09T02:53:01.391Z,8.70
2018-12-09T02:54:01.447Z,8.78
2018-12-09T02:55:01.502Z,8.73
2018-12-09T02:56:01.558Z,8.68
2018-12-09T02:57:01.613Z,8.78
2018-12-09T02:58:01.671Z,8.78
2018-12-09T02:59:01.726Z,8.65
2018-12-09T03:00:01.833Z,8.58
2018-12-09T03:01:01.836Z,8.46
2018-12-09T03:02:01.893Z,8.47
2018-12-09T03:03:01.950Z,8.63
2018-12-09T03:04:02.004Z,8.78
2018-12-09T03:05:02.322Z,8.96
2018-12-09T03:06:02.116Z,9.12
2018-12-09T03:07:02.172Z,9.17
2018-12-09T03:08:02.228Z,9.23
2018-12-09T03:09:02.285Z,9.26
2018-12-09T03:10:02.349Z,9.06
2018-12-09T03:11:02.396Z,9.08
2018-12-09T03:12:02.459Z,9.00
2018-12-09T03:13:02.511Z,8.91
2018-12-09T03:14:02.572Z,8.88
2018-12-09T03:15:02.620Z,8.78
2018-12-09T03:16:02.675Z,8.78
2018-12-09T03:17:02.734Z,8.88
2018-12-09T03:18:02.788Z,8.93
2018-12-09T03:19:02.846Z,8.94
2018-12-09T03:20:02.899Z,8.98
2018-12-09T03:21:02.955Z,8.97
2018-12-09T03:22:03.014Z,8.93
2018-12-09T03:23:03.068Z,8.98
2018-12-09T03:24:03.124Z,9.04
2018-12-09T03:25:03.179Z,8.94
2018-12-09T03:26:03.237Z,8.98
2018-12-09T03:27:03.292Z,8.97
2018-12-09T03:28:03.347Z,8.96
2018-12-09T03:29:03.404Z,8.96
2018-12-09T03:30:03.460Z,8.91
2018-12-09T03:31:03.515Z,8.97
2018-12-09T03:32:03.573Z,8.97
2018-12-09T03:33:03.631Z,9.04
2018-12-09T03:34:03.684Z,8.98
2018-12-09T03:35:03.739Z,8.98
2018-12-09T03:36:03.799Z,9.06
2018-12-09T03:37:03.851Z,9.01
2018-12-09T03:38:03.909Z,8.97
2018-12-09T03:39:03.963Z,8.93
2018-12-09T03:40:04.019Z,8.91
2018-12-09T03:41:04.075Z,8.94
2018-12-09T03:42:04.133Z,8.98
2018-12-09T03:43:04.198Z,8.86
2018-12-09T03:44:04.259Z,8.88
2018-12-09T03:45:04.299Z,8.79
2018-12-09T03:46:04.357Z,8.73
2018-12-09T03:47:04.410Z,8.76
2018-12-09T03:48:04.467Z,8.78
2018-12-09T03:49:04.524Z,8.71
2018-12-09T03:50:04.580Z,8.73
2018-12-09T03:51:04.634Z,8.60
2018-12-09T03:52:04.696Z,8.63
2018-12-09T03:53:04.749Z,8.64
2018-12-09T03:54:04.804Z,8.55
2018-12-09T03:55:04.881Z,8.49
2018-12-09T03:56:04.931Z,8.47
2018-12-09T03:57:04.971Z,8.37
2018-12-09T03:58:05.031Z,8.29
2018-12-09T03:59:05.082Z,8.28
2018-12-09T04:00:05.180Z,8.28
2018-12-09T04:01:05.195Z,8.25
2018-12-09T04:02:05.250Z,8.27
2018-12-09T04:03:05.307Z,8.24
2018-12-09T04:04:05.363Z,8.29
2018-12-09T04:05:05.420Z,8.31
2018-12-09T04:06:05.475Z,8.28
2018-12-09T04:07:05.530Z,8.29
2018-12-09T04:08:05.585Z,8.27
2018-12-09T04:09:05.641Z,8.28
2018-12-09T04:10:05.698Z,8.29
2018-12-09T04:11:05.752Z,8.36
2018-12-09T04:12:05.821Z,8.36
2018-12-09T04:13:05.864Z,8.32
2018-12-09T04:14:05.920Z,8.28
2018-12-09T04:15:05.974Z,8.31
2018-12-09T04:16:06.031Z,8.34
2018-12-09T04:17:06.088Z,8.29
2018-12-09T04:18:06.144Z,8.29
2018-12-09T04:19:06.199Z,8.27
2018-12-09T04:20:06.255Z,8.37
2018-12-09T04:21:06.312Z,8.29
2018-12-09T04:22:06.369Z,8.37
2018-12-09T04:23:06.422Z,8.36
2018-12-09T04:24:06.480Z,8.29
2018-12-09T04:25:06.534Z,8.29
2018-12-09T04:26:06.590Z,8.27
2018-12-09T04:27:06.646Z,8.22
2018-12-09T04:28:06.702Z,8.20
2018-12-09T04:29:06.757Z,8.20
2018-12-09T04:30:06.898Z,8.21
2018-12-09T04:31:06.870Z,8.27
2018-12-09T04:32:06.926Z,8.29
2018-12-09T04:33:06.980Z,8.32
2018-12-09T04:34:07.039Z,8.29
2018-12-09T04:35:07.091Z,8.39
2018-12-09T04:36:07.150Z,8.32
2018-12-09T04:37:07.204Z,8.31
2018-12-09T04:38:07.259Z,8.27
2018-12-09T04:39:07.313Z,8.29
2018-12-09T04:40:08.746Z,8.27
2018-12-09T04:41:07.426Z,8.31
2018-12-09T04:42:07.487Z,8.36
2018-12-09T04:43:07.541Z,8.31
2018-12-09T04:44:07.594Z,8.31
2018-12-09T04:45:07.652Z,8.27
2018-12-09T04:46:07.713Z,8.27
2018-12-09T04:47:07.760Z,8.27
2018-12-09T04:48:07.842Z,8.36
2018-12-09T04:49:07.872Z,8.34
2018-12-09T04:50:07.930Z,8.31
2018-12-09T04:51:07.984Z,8.31
2018-12-09T04:52:08.049Z,8.24
2018-12-09T04:53:08.096Z,8.24
2018-12-09T04:54:08.152Z,8.12
2018-12-09T04:55:08.207Z,8.10
2018-12-09T04:56:08.286Z,8.22
2018-12-09T04:57:08.318Z,8.22
2018-12-09T04:58:08.375Z,8.10
2018-12-09T04:59:08.429Z,8.21
2018-12-09T05:00:08.486Z,8.07
2018-12-09T05:01:08.902Z,7.95
2018-12-09T05:02:08.596Z,7.96
2018-12-09T05:03:08.654Z,7.94
2018-12-09T05:04:08.708Z,8.14
2018-12-09T05:05:08.764Z,8.14
2018-12-09T05:06:08.820Z,8.06
2018-12-09T05:07:08.875Z,8.02
2018-12-09T05:08:08.934Z,8.00
2018-12-09T05:09:08.988Z,8.00
2018-12-09T05:10:09.043Z,8.03
2018-12-09T05:11:09.099Z,8.04
2018-12-09T05:12:09.156Z,8.12
2018-12-09T05:13:09.211Z,8.04
2018-12-09T05:14:09.268Z,8.06
2018-12-09T05:15:09.323Z,8.07
2018-12-09T05:16:09.379Z,8.21
2018-12-09T05:17:09.433Z,8.04
2018-12-09T05:18:09.493Z,7.94
2018-12-09T05:19:09.545Z,7.92
2018-12-09T05:20:09.603Z,7.99
2018-12-09T05:21:09.660Z,7.96
2018-12-09T05:22:09.717Z,8.07
2018-12-09T05:23:09.767Z,8.10
2018-12-09T05:24:09.826Z,8.27
2018-12-09T05:25:09.880Z,8.29
2018-12-09T05:26:09.936Z,8.20
2018-12-09T05:27:09.991Z,8.20
2018-12-09T05:28:10.048Z,8.22
2018-12-09T05:29:10.104Z,8.29
2018-12-09T05:30:10.160Z,8.37
2018-12-09T05:31:10.215Z,8.68
2018-12-09T05:32:10.270Z,8.76
2018-12-09T05:33:10.327Z,8.78
2018-12-09T05:34:10.383Z,8.55
2018-12-09T05:35:10.441Z,8.42
2018-12-09T05:36:10.493Z,8.64
2018-12-09T05:37:10.562Z,8.83
2018-12-09T05:38:10.606Z,8.96
2018-12-09T05:39:10.661Z,8.83
2018-12-09T05:40:11.978Z,8.68
2018-12-09T05:41:10.779Z,8.93
2018-12-09T05:42:10.828Z,9.06
2018-12-09T05:43:10.886Z,9.08
2018-12-09T05:44:10.940Z,9.00
2018-12-09T05:45:10.996Z,9.03
2018-12-09T05:46:11.053Z,9.03
2018-12-09T05:47:11.108Z,9.16
2018-12-09T05:48:11.170Z,9.17
2018-12-09T05:49:11.220Z,9.19
2018-12-09T05:50:11.278Z,9.30
2018-12-09T05:51:11.334Z,9.26
2018-12-09T05:52:11.388Z,9.30
2018-12-09T05:53:11.464Z,9.24
2018-12-09T05:54:11.502Z,9.32
2018-12-09T05:55:11.557Z,9.26
2018-12-09T05:56:11.613Z,9.19
2018-12-09T05:57:11.669Z,9.17
2018-12-09T05:58:11.736Z,9.12
2018-12-09T05:59:11.780Z,9.06
2018-12-09T06:00:11.836Z,9.03
2018-12-09T06:01:11.893Z,9.10
2018-12-09T06:02:11.948Z,9.04
2018-12-09T06:03:12.003Z,8.98
2018-12-09T06:04:12.060Z,9.12
2018-12-09T06:05:12.118Z,9.17
2018-12-09T06:06:12.174Z,9.08
2018-12-09T06:07:12.229Z,9.19
2018-12-09T06:08:12.285Z,9.26
2018-12-09T06:09:12.342Z,9.26
2018-12-09T06:10:12.399Z,9.30
2018-12-09T06:11:12.453Z,9.31
2018-12-09T06:12:12.510Z,9.34
2018-12-09T06:13:12.566Z,9.34
2018-12-09T06:14:12.625Z,9.24
2018-12-09T06:15:12.678Z,9.26
2018-12-09T06:16:12.733Z,9.31
2018-12-09T06:17:12.790Z,9.24
2018-12-09T06:18:12.847Z,9.30
2018-12-09T06:19:12.903Z,9.23
2018-12-09T06:20:12.959Z,9.26
2018-12-09T06:21:13.015Z,9.31
2018-12-09T06:22:13.072Z,9.31
2018-12-09T06:23:13.128Z,9.26
2018-12-09T06:24:13.183Z,9.20
2018-12-09T06:25:13.245Z,9.32
2018-12-09T06:26:13.296Z,9.30
2018-12-09T06:27:14.052Z,9.26
2018-12-09T06:28:13.410Z,9.26
2018-12-09T06:29:13.465Z,9.27
2018-12-09T06:30:13.522Z,9.20
2018-12-09T06:31:13.582Z,9.19
2018-12-09T06:32:13.635Z,9.16
2018-12-09T06:33:13.691Z,9.15
2018-12-09T06:34:13.749Z,9.16
2018-12-09T06:35:13.803Z,9.13
2018-12-09T06:36:13.861Z,9.10
2018-12-09T06:37:13.916Z,9.22
2018-12-09T06:38:13.973Z,9.19
2018-12-09T06:39:14.029Z,9.17
2018-12-09T06:40:14.085Z,9.27
2018-12-09T06:41:14.142Z,9.24
2018-12-09T06:42:14.199Z,9.27
2018-12-09T06:43:14.259Z,9.22
2018-12-09T06:44:14.315Z,9.19
2018-12-09T06:45:14.368Z,9.16
2018-12-09T06:46:14.424Z,9.22
2018-12-09T06:47:14.480Z,9.24
2018-12-09T06:48:14.537Z,9.30
2018-12-09T06:49:14.593Z,9.32
2018-12-09T06:50:14.649Z,9.31
2018-12-09T06:51:14.706Z,9.27
2018-12-09T06:52:14.763Z,9.34
2018-12-09T06:53:14.819Z,9.27
2018-12-09T06:54:14.876Z,9.35
2018-12-09T06:55:14.932Z,9.38
2018-12-09T06:56:14.988Z,9.35
2018-12-09T06:57:15.047Z,9.31
2018-12-09T06:58:15.101Z,9.40
2018-12-09T06:59:15.157Z,9.44
2018-12-09T07:00:15.215Z,9.44
2018-12-09T07:01:15.270Z,9.40
2018-12-09T07:02:15.326Z,9.35
2018-12-09T07:03:15.382Z,9.52
2018-12-09T07:04:15.440Z,9.53
2018-12-09T07:05:15.496Z,9.52
2018-12-09T07:06:15.553Z,9.49
2018-12-09T07:07:15.609Z,9.62
2018-12-09T07:08:15.665Z,9.58
2018-12-09T07:09:15.722Z,9.73
2018-12-09T07:10:15.780Z,9.63
2018-12-09T07:11:15.833Z,9.60
2018-12-09T07:12:15.890Z,9.70
2018-12-09T07:13:15.947Z,9.58
2018-12-09T07:14:16.003Z,9.73
2018-12-09T07:15:16.059Z,9.65
2018-12-09T07:16:16.115Z,9.60
2018-12-09T07:17:16.175Z,9.67
2018-12-09T07:18:16.229Z,9.67
2018-12-09T07:19:16.285Z,9.63
2018-12-09T07:20:16.341Z,9.68
2018-12-09T07:21:16.402Z,9.63
2018-12-09T07:22:16.456Z,9.74
2018-12-09T07:23:17.174Z,9.71
2018-12-09T07:24:16.568Z,9.67
2018-12-09T07:25:16.624Z,9.63
2018-12-09T07:26:16.682Z,9.59
2018-12-09T07:27:16.737Z,9.70
2018-12-09T07:28:16.793Z,9.68
2018-12-09T07:29:16.852Z,9.68
2018-12-09T07:30:16.920Z,9.62
2018-12-09T07:31:16.963Z,9.67
2018-12-09T07:32:17.020Z,9.59
2018-12-09T07:33:17.078Z,9.62
2018-12-09T07:34:17.714Z,9.63
2018-12-09T07:35:17.187Z,9.75
2018-12-09T07:36:17.245Z,9.70
2018-12-09T07:37:17.301Z,9.68
2018-12-09T07:38:17.358Z,9.67
2018-12-09T07:39:17.414Z,9.65
2018-12-09T07:40:17.470Z,9.59
2018-12-09T07:41:17.527Z,9.48
2018-12-09T07:42:17.584Z,9.49
2018-12-09T07:43:17.765Z,9.52
2018-12-09T07:44:17.696Z,9.44
2018-12-09T07:45:17.803Z,9.40
2018-12-09T07:46:17.809Z,9.37
2018-12-09T07:47:17.866Z,9.37
2018-12-09T07:48:17.924Z,9.32
2018-12-09T07:49:17.997Z,9.34
2018-12-09T07:50:18.035Z,9.32
2018-12-09T07:51:18.091Z,9.34
2018-12-09T07:52:18.148Z,9.38
2018-12-09T07:53:18.205Z,9.45
2018-12-09T07:54:18.260Z,9.52
2018-12-09T07:55:18.316Z,9.48
2018-12-09T07:56:18.373Z,9.50
2018-12-09T07:57:18.431Z,9.53
2018-12-09T07:58:18.488Z,9.48
2018-12-09T07:59:18.545Z,9.48
2018-12-09T08:00:18.600Z,9.52
2018-12-09T08:01:18.657Z,9.49
2018-12-09T08:02:18.713Z,9.53
2018-12-09T08:03:18.769Z,9.53
2018-12-09T08:04:18.826Z,9.50
2018-12-09T08:05:18.882Z,9.44
2018-12-09T08:06:18.940Z,9.52
2018-12-09T08:07:18.996Z,9.49
2018-12-09T08:08:19.050Z,9.52
2018-12-09T08:09:19.109Z,9.41
2018-12-09T08:10:19.165Z,9.41
2018-12-09T08:11:19.223Z,9.40
2018-12-09T08:12:19.278Z,9.37
2018-12-09T08:13:19.334Z,9.48
2018-12-09T08:14:19.392Z,9.48
2018-12-09T08:15:19.448Z,9.32
2018-12-09T08:16:19.504Z,9.50
2018-12-09T08:17:19.561Z,9.42
2018-12-09T08:18:19.617Z,9.44
2018-12-09T08:19:19.674Z,9.35
2018-12-09T08:20:19.730Z,9.35
2018-12-09T08:21:19.786Z,9.31
2018-12-09T08:22:19.844Z,9.31
2018-12-09T08:23:19.900Z,9.31
2018-12-09T08:24:19.956Z,9.35
2018-12-09T08:25:20.028Z,9.37
2018-12-09T08:26:20.069Z,9.35
2018-12-09T08:27:20.125Z,9.30
2018-12-09T08:28:20.182Z,9.23
2018-12-09T08:29:20.238Z,9.27
2018-12-09T08:30:20.298Z,9.30
2018-12-09T08:31:20.351Z,9.20
2018-12-09T08:32:20.407Z,9.23
2018-12-09T08:33:20.466Z,9.24
2018-12-09T08:34:20.521Z,9.32
2018-12-09T08:35:20.578Z,9.23
2018-12-09T08:36:20.633Z,9.30
2018-12-09T08:37:20.693Z,9.16
2018-12-09T08:38:20.748Z,9.19
2018-12-09T08:39:20.850Z,9.15
2018-12-09T08:40:20.862Z,9.19
2018-12-09T08:41:20.918Z,9.26
2018-12-09T08:42:20.972Z,9.19
2018-12-09T08:43:21.029Z,9.27
2018-12-09T08:44:21.087Z,9.24
2018-12-09T08:45:21.143Z,9.32
2018-12-09T08:46:21.736Z,9.30
2018-12-09T08:47:21.255Z,9.26
2018-12-09T08:48:21.412Z,9.35
2018-12-09T08:49:21.367Z,9.32
2018-12-09T08:50:21.425Z,9.32
2018-12-09T08:51:21.481Z,9.31
2018-12-09T08:52:21.537Z,9.31
2018-12-09T08:53:21.594Z,9.30
2018-12-09T08:54:21.650Z,9.16
2018-12-09T08:55:21.707Z,9.12
2018-12-09T08:56:22.543Z,9.16
2018-12-09T08:57:21.820Z,9.15
2018-12-09T08:58:21.876Z,9.20
2018-12-09T08:59:21.934Z,9.16
2018-12-09T09:00:21.989Z,9.17
2018-12-09T09:01:22.047Z,9.17
2018-12-09T09:02:22.103Z,9.19
2018-12-09T09:03:22.158Z,9.16
2018-12-09T09:04:22.215Z,9.17
2018-12-09T09:05:22.271Z,9.16
2018-12-09T09:06:22.327Z,9.15
2018-12-09T09:07:22.384Z,9.16
2018-12-09T09:08:22.443Z,9.17
2018-12-09T09:09:22.496Z,9.16
2018-12-09T09:10:22.554Z,9.17
2018-12-09T09:11:22.612Z,9.16
2018-12-09T09:12:22.666Z,9.19
2018-12-09T09:13:22.721Z,9.15
2018-12-09T09:14:22.781Z,9.20
2018-12-09T09:15:22.835Z,9.20
2018-12-09T09:16:22.911Z,9.16
2018-12-09T09:17:22.948Z,9.20
2018-12-09T09:18:23.004Z,9.17
2018-12-09T09:19:23.601Z,9.13
2018-12-09T09:20:23.621Z,9.17
2018-12-09T09:21:23.175Z,9.13
2018-12-09T09:22:23.231Z,9.10
2018-12-09T09:23:23.287Z,9.01
2018-12-09T09:24:23.342Z,9.03
2018-12-09T09:25:23.400Z,9.10
2018-12-09T09:26:23.456Z,9.06
2018-12-09T09:27:23.511Z,9.03
2018-12-09T09:28:23.569Z,8.89
2018-12-09T09:29:23.626Z,8.96
2018-12-09T09:30:23.687Z,8.98
2018-12-09T09:31:23.737Z,8.98
2018-12-09T09:32:23.793Z,8.97
2018-12-09T09:33:23.851Z,9.03
2018-12-09T09:34:23.909Z,9.10
2018-12-09T09:35:23.962Z,8.96
2018-12-09T09:36:24.021Z,8.94
2018-12-09T09:37:24.077Z,9.00
2018-12-09T09:38:24.133Z,8.98
2018-12-09T09:39:24.190Z,8.94
2018-12-09T09:40:24.246Z,8.96
2018-12-09T09:41:24.303Z,9.04
2018-12-09T09:42:24.360Z,8.93
2018-12-09T09:43:24.512Z,8.89
2018-12-09T09:44:24.471Z,8.73
2018-12-09T09:45:24.528Z,8.86
2018-12-09T09:46:24.584Z,8.88
2018-12-09T09:47:24.641Z,8.94
2018-12-09T09:48:24.698Z,8.93
2018-12-09T09:49:24.757Z,8.93
2018-12-09T09:50:24.819Z,8.89
2018-12-09T09:51:24.867Z,8.91
2018-12-09T09:52:24.923Z,8.89
2018-12-09T09:53:24.981Z,8.93
2018-12-09T09:54:25.037Z,8.83
2018-12-09T09:55:25.096Z,8.76
2018-12-09T09:56:25.149Z,8.75
2018-12-09T09:57:25.206Z,8.76
2018-12-09T09:58:25.263Z,8.76
2018-12-09T09:59:25.318Z,8.76
2018-12-09T10:00:25.376Z,8.68
2018-12-09T10:01:25.431Z,8.93
2018-12-09T10:02:25.489Z,8.78
2018-12-09T10:03:26.271Z,8.78
2018-12-09T10:04:25.602Z,8.88
2018-12-09T10:05:25.658Z,8.94
2018-12-09T10:06:25.716Z,8.88
2018-12-09T10:07:26.444Z,8.89
2018-12-09T10:08:25.828Z,8.86
2018-12-09T10:09:25.884Z,8.94
2018-12-09T10:10:25.944Z,8.96
2018-12-09T10:11:26.704Z,8.89
2018-12-09T10:12:26.054Z,8.98
2018-12-09T10:13:26.112Z,8.96
2018-12-09T10:14:26.181Z,9.01
2018-12-09T10:15:26.226Z,9.06
2018-12-09T10:16:26.281Z,9.03
2018-12-09T10:17:26.337Z,9.00
2018-12-09T10:18:26.395Z,9.01
2018-12-09T10:19:27.104Z,9.06
2018-12-09T10:20:27.176Z,9.00
2018-12-09T10:21:27.256Z,9.10
2018-12-09T10:22:32.064Z,9.17
2018-12-09T10:23:26.680Z,9.16
2018-12-09T10:24:26.734Z,9.10
2018-12-09T10:25:26.792Z,9.15
2018-12-09T10:26:26.849Z,9.17
2018-12-09T10:27:26.904Z,9.20
2018-12-09T10:28:26.961Z,9.22
2018-12-09T10:29:27.017Z,9.27
2018-12-09T10:30:27.076Z,9.24
2018-12-09T10:31:27.132Z,9.30
2018-12-09T10:32:27.212Z,9.37
2018-12-09T10:33:27.245Z,9.32
2018-12-09T10:34:27.303Z,9.31
2018-12-09T10:35:27.448Z,9.31
2018-12-09T10:36:27.416Z,9.32
2018-12-09T10:37:27.472Z,9.34
2018-12-09T10:38:27.529Z,9.34
2018-12-09T10:39:27.585Z,9.34
2018-12-09T10:40:27.643Z,9.37
2018-12-09T10:41:27.698Z,9.42
2018-12-09T10:42:27.756Z,9.37
2018-12-09T10:43:27.812Z,9.35
2018-12-09T10:44:27.869Z,9.42
2018-12-09T10:45:27.981Z,9.48
2018-12-09T10:46:27.984Z,9.48
2018-12-09T10:47:28.042Z,9.49
2018-12-09T10:48:28.096Z,9.52
2018-12-09T10:49:28.153Z,9.52
2018-12-09T10:50:28.210Z,9.44
2018-12-09T10:51:28.266Z,9.52
2018-12-09T10:52:28.324Z,9.52
2018-12-09T10:53:28.380Z,9.53
2018-12-09T10:54:28.438Z,9.55
2018-12-09T10:55:28.503Z,9.55
2018-12-09T10:56:28.554Z,9.50
2018-12-09T10:57:28.608Z,9.50
2018-12-09T10:58:28.664Z,9.50
2018-12-09T10:59:28.721Z,9.50
2018-12-09T11:00:29.087Z,9.52
2018-12-09T11:01:29.479Z,9.58
2018-12-09T11:02:28.892Z,9.50
2018-12-09T11:03:28.949Z,9.50
2018-12-09T11:04:29.005Z,9.50
2018-12-09T11:05:29.440Z,9.55
2018-12-09T11:06:29.124Z,9.63
2018-12-09T11:07:29.181Z,9.62
2018-12-09T11:08:29.233Z,9.65
2018-12-09T11:09:29.291Z,9.68
2018-12-09T11:10:29.349Z,9.63
2018-12-09T11:11:29.420Z,9.71
2018-12-09T11:12:29.461Z,9.77
2018-12-09T11:13:29.517Z,9.88
2018-12-09T11:14:29.576Z,9.93
2018-12-09T11:15:29.632Z,9.98
2018-12-09T11:16:29.689Z,10.02
2018-12-09T11:17:29.753Z,10.02
2018-12-09T11:18:29.838Z,10.16
2018-12-09T11:19:29.859Z,10.18
2018-12-09T11:20:29.917Z,10.02
2018-12-09T11:21:30.827Z,10.09
2018-12-09T11:22:30.033Z,10.04
2018-12-09T11:23:30.088Z,10.07
2018-12-09T11:24:30.147Z,10.11
2018-12-09T11:25:30.203Z,10.20
2018-12-09T11:26:30.261Z,10.20
2018-12-09T11:27:30.318Z,10.25
2018-12-09T11:28:30.377Z,10.38
2018-12-09T11:29:30.434Z,10.31
2018-12-09T11:30:30.492Z,10.31
2018-12-09T11:31:31.088Z,10.32
2018-12-09T11:32:30.607Z,10.18
2018-12-09T11:33:30.665Z,10.14
2018-12-09T11:34:30.721Z,10.18
2018-12-09T11:35:30.778Z,10.04
2018-12-09T11:36:30.836Z,10.07
2018-12-09T11:37:30.895Z,9.98
2018-12-09T11:38:30.956Z,9.93
2018-12-09T11:39:31.321Z,9.92
2018-12-09T11:40:31.067Z,9.99
2018-12-09T11:41:31.126Z,10.01
2018-12-09T11:42:31.191Z,9.88
2018-12-09T11:43:31.241Z,9.86
2018-12-09T11:44:31.298Z,9.81
2018-12-09T11:45:31.357Z,9.85
2018-12-09T11:46:31.413Z,9.81
2018-12-09T11:47:31.473Z,9.68
2018-12-09T11:48:31.528Z,9.71
2018-12-09T11:49:31.587Z,9.74
2018-12-09T11:50:31.643Z,9.70
2018-12-09T11:51:31.700Z,9.75
2018-12-09T11:52:31.757Z,9.80
2018-12-09T11:53:31.816Z,9.74
2018-12-09T11:54:31.875Z,9.71
2018-12-09T11:55:31.930Z,9.74
2018-12-09T11:56:31.987Z,9.81
2018-12-09T11:57:32.049Z,9.78
2018-12-09T11:58:32.103Z,9.86
2018-12-09T11:59:32.159Z,9.80
2018-12-09T12:00:32.224Z,9.80
2018-12-09T12:01:32.279Z,9.88
2018-12-09T12:02:32.332Z,9.86
2018-12-09T12:03:32.388Z,9.86
2018-12-09T12:04:32.447Z,9.88
2018-12-09T12:05:32.504Z,9.83
2018-12-09T12:06:32.563Z,9.77
2018-12-09T12:07:32.619Z,9.83
2018-12-09T12:08:32.676Z,9.89
2018-12-09T12:09:32.733Z,9.96
2018-12-09T12:10:32.791Z,9.96
2018-12-09T12:11:32.849Z,10.06
2018-12-09T12:12:32.907Z,10.13
2018-12-09T12:13:32.966Z,10.04
2018-12-09T12:14:33.021Z,10.07
2018-12-09T12:15:33.078Z,10.20
2018-12-09T12:16:33.136Z,10.14
2018-12-09T12:17:33.194Z,10.07
2018-12-09T12:18:33.254Z,10.16
2018-12-09T12:19:33.309Z,10.07
2018-12-09T12:20:33.365Z,10.18
2018-12-09T12:21:33.424Z,10.20
2018-12-09T12:22:33.483Z,10.34
2018-12-09T12:23:33.542Z,10.32
2018-12-09T12:24:33.597Z,10.35
2018-12-09T12:25:33.657Z,10.26
2018-12-09T12:26:33.713Z,10.22
2018-12-09T12:27:33.773Z,10.17
2018-12-09T12:28:33.828Z,10.17
2018-12-09T12:29:33.887Z,10.13
2018-12-09T12:30:33.944Z,10.06
2018-12-09T12:31:34.000Z,10.07
2018-12-09T12:32:34.062Z,9.98
2018-12-09T12:33:34.118Z,9.99
2018-12-09T12:34:34.175Z,9.99
2018-12-09T12:35:34.232Z,9.96
2018-12-09T12:36:34.290Z,9.96
2018-12-09T12:37:34.345Z,9.95
2018-12-09T12:38:34.403Z,9.83
2018-12-09T12:39:34.463Z,9.83
2018-12-09T12:40:34.518Z,9.71
2018-12-09T12:41:34.581Z,9.74
2018-12-09T12:42:34.633Z,9.73
2018-12-09T12:43:34.690Z,9.77
2018-12-09T12:44:34.749Z,9.86
2018-12-09T12:45:34.804Z,9.81
2018-12-09T12:46:34.863Z,9.67
2018-12-09T12:47:34.920Z,9.80
2018-12-09T12:48:34.975Z,9.71
2018-12-09T12:49:35.035Z,9.71
2018-12-09T12:50:35.090Z,9.74
2018-12-09T12:51:35.148Z,9.71
2018-12-09T12:52:35.205Z,9.65
2018-12-09T12:53:35.261Z,9.68
2018-12-09T12:54:35.320Z,9.48
2018-12-09T12:55:35.376Z,9.52
2018-12-09T12:56:35.432Z,9.49
2018-12-09T12:57:35.490Z,9.50
2018-12-09T12:58:35.548Z,9.34
2018-12-09T12:59:35.603Z,9.35
2018-12-09T13:00:35.659Z,9.41
2018-12-09T13:01:35.718Z,9.34
2018-12-09T13:02:35.779Z,9.67
2018-12-09T13:03:35.831Z,9.65
2018-12-09T13:04:35.890Z,9.65
2018-12-09T13:05:35.946Z,9.68
2018-12-09T13:06:36.003Z,9.73
2018-12-09T13:07:36.059Z,10.28
2018-12-09T13:08:36.120Z,11.03
2018-12-09T13:09:36.174Z,11.05
2018-12-09T13:10:36.647Z,11.08
2018-12-09T13:11:36.903Z,10.83
2018-12-09T13:12:36.964Z,10.44
2018-12-09T13:13:37.050Z,10.22
2018-12-09T13:14:37.122Z,10.11
2018-12-09T13:15:36.515Z,10.04